Time;durP1;ratioP1;P1;durP2;ratioP2;P2;SDS_P1;SDS_P2;PMS_P1;PMS_P2;Temp;Humidity;BMP_temperature;BMP_pressure;BME280_temperature;BME280_humidity;BME280_pressure;Samples;Min_cycle;Max_cycle;Signal;HPM_P1;HPM_P2
2021/05/12 00:00:53;;;;;;;7.15;3.47;;;;;;;17.11;42.67;100042.41;1439462;95;26597;-75
2021/05/12 00:03:20;;;;;;;5.75;3.62;;;;;;;17.06;42.59;100036.89;1404883;95;25848;-76
2021/05/12 00:05:47;;;;;;;6.78;3.12;;;;;;;17.02;42.71;100041.98;1427053;95;25717;-76
2021/05/12 00:08:14;;;;;;;7.78;3.00;;;;;;;16.98;42.74;100033.23;1401560;95;28211;-76
2021/05/12 00:10:41;;;;;;;6.15;2.90;;;;;;;16.96;42.75;100032.09;1436456;95;25783;-76
2021/05/12 00:13:08;;;;;;;6.10;2.98;;;;;;;16.93;42.73;100032.59;1388931;97;25790;-76
2021/05/12 00:15:35;;;;;;;4.87;3.00;;;;;;;16.90;42.75;100028.48;1383302;98;25656;-76
2021/05/12 00:18:10;;;;;;;10.05;2.70;;;;;;;16.91;42.63;100030.11;1397660;96;25868;-76
2021/05/12 00:20:31;;;;;;;6.33;3.27;;;;;;;16.89;42.71;100028.18;1408684;96;28027;-75
2021/05/12 00:23:08;;;;;;;7.00;3.10;;;;;;;16.85;42.65;100026.22;1382269;96;25838;-75
2021/05/12 00:25:33;;;;;;;6.12;2.65;;;;;;;16.83;42.77;100029.15;1426759;95;25744;-76
2021/05/12 00:28:00;;;;;;;10.28;3.80;;;;;;;16.78;42.71;100030.95;1416894;95;25900;-76
2021/05/12 00:30:27;;;;;;;6.42;2.90;;;;;;;16.76;42.75;100026.31;1430099;95;25728;-76
2021/05/12 00:32:54;;;;;;;5.65;2.95;;;;;;;16.72;42.74;100026.50;1388992;97;28091;-75
2021/05/12 00:35:22;;;;;;;5.60;3.00;;;;;;;16.67;42.63;100026.39;1441326;94;25704;-76
2021/05/12 00:37:49;;;;;;;7.58;2.80;;;;;;;16.63;42.67;100023.36;1434545;95;25737;-75
2021/05/12 00:40:18;;;;;;;7.40;3.02;;;;;;;16.61;42.64;100020.59;1433907;95;25664;-76
2021/05/12 00:42:46;;;;;;;7.50;3.50;;;;;;;16.57;42.82;100023.49;1433423;95;25896;-75
2021/05/12 00:45:20;;;;;;;9.33;2.95;;;;;;;16.54;42.83;100023.95;1440429;94;28085;-75
2021/05/12 00:47:50;;;;;;;8.38;3.10;;;;;;;16.53;42.99;100028.53;1413710;96;26528;-76
2021/05/12 00:50:26;;;;;;;10.53;2.80;;;;;;;16.49;42.95;100034.10;1435431;95;25661;-75
2021/05/12 00:52:53;;;;;;;4.90;2.90;;;;;;;16.47;43.02;100029.98;1423101;96;25714;-75
2021/05/12 00:55:21;;;;;;;5.65;2.95;;;;;;;16.46;43.01;100027.01;1408775;95;25600;-76
2021/05/12 00:57:49;;;;;;;6.05;3.27;;;;;;;16.42;42.86;100028.55;1409529;95;27698;-75
2021/05/12 01:00:19;;;;;;;5.42;2.77;;;;;;;16.40;42.90;100027.97;1435555;95;25737;-75
2021/05/12 01:02:46;;;;;;;4.78;3.10;;;;;;;16.36;42.97;100023.55;1424733;96;25722;-75
2021/05/12 01:05:36;;;;;;;3.22;2.92;;;;;;;16.32;42.93;100021.55;1440794;94;25794;-75
2021/05/12 01:08:05;;;;;;;6.00;3.37;;;;;;;16.28;42.94;100019.03;1402271;95;25924;-75
2021/05/12 01:10:34;;;;;;;8.33;3.25;;;;;;;16.19;43.09;100017.23;1422034;96;27525;-76
2021/05/12 01:13:02;;;;;;;4.72;3.10;;;;;;;16.18;43.24;100015.08;1380384;98;25889;-75
2021/05/12 01:15:30;;;;;;;11.20;3.02;;;;;;;16.16;43.30;100009.61;1393662;96;25883;-76
2021/05/12 01:18:13;;;;;;;5.50;3.15;;;;;;;16.13;43.50;100004.16;1384939;98;26543;-75
2021/05/12 01:21:00;;;;;;;5.33;3.10;;;;;;;16.09;43.49;100005.69;1418141;96;26152;-75
2021/05/12 01:23:31;;;;;;;10.50;3.52;;;;;;;16.04;43.54;100004.73;1433571;95;28170;-75
2021/05/12 01:25:59;;;;;;;;;;;;;;;16.00;43.61;100007.62;1423910;96;26173;-76
2021/05/12 01:28:30;;;;;;;4.60;3.12;;;;;;;15.93;43.56;100006.94;1444411;95;25671;-75
2021/05/12 01:31:02;;;;;;;9.45;3.47;;;;;;;15.84;43.67;99992.14;1416151;96;25670;-75
2021/05/12 01:33:29;;;;;;;4.17;2.67;;;;;;;15.82;43.78;99995.09;1410271;96;25812;-76
2021/05/12 01:35:58;;;;;;;12.80;2.87;;;;;;;15.82;43.73;99995.61;1431141;96;27682;-75
2021/05/12 01:38:28;;;;;;;8.23;3.40;;;;;;;15.78;43.55;99995.78;1416541;96;25711;-75
2021/05/12 01:40:55;;;;;;;6.25;3.33;;;;;;;15.73;43.64;100000.53;1409109;96;25708;-76
2021/05/12 01:43:23;;;;;;;6.92;3.40;;;;;;;15.65;43.70;99996.84;1411693;95;25890;-75
2021/05/12 01:45:50;;;;;;;4.37;3.15;;;;;;;15.61;43.62;100001.59;1450190;94;25848;-76
2021/05/12 01:48:17;;;;;;;12.73;3.45;;;;;;;15.57;43.83;99998.52;1434032;94;27564;-75
2021/05/12 01:50:45;;;;;;;5.90;3.22;;;;;;;15.54;43.80;99996.30;1405204;95;25876;-75
2021/05/12 01:53:14;;;;;;;6.47;3.05;;;;;;;15.54;43.72;99986.02;1428340;95;26043;-75
2021/05/12 01:55:41;;;;;;;10.15;3.12;;;;;;;15.52;43.68;99983.56;1431776;94;25920;-76
2021/05/12 01:58:08;;;;;;;15.10;3.47;;;;;;;15.53;43.80;99981.66;1437244;95;25730;-76
2021/05/12 02:00:46;;;;;;;11.35;3.58;;;;;;;15.48;43.73;99978.34;1401670;96;27667;-76
2021/05/12 02:03:14;;;;;;;8.73;3.22;;;;;;;15.46;43.76;99980.45;1428711;95;25844;-76
2021/05/12 02:05:43;;;;;;;7.22;3.30;;;;;;;15.45;43.84;99977.45;1447123;94;25650;-75
2021/05/12 02:08:13;;;;;;;6.25;3.15;;;;;;;15.39;43.85;99969.73;1422338;95;25758;-75
2021/05/12 02:10:43;;;;;;;8.27;3.17;;;;;;;15.34;43.80;99975.00;1394415;97;25934;-75
2021/05/12 02:13:11;;;;;;;4.87;3.00;;;;;;;15.28;43.98;99975.94;1392717;97;28155;-75
2021/05/12 02:15:39;;;;;;;8.28;3.15;;;;;;;15.22;43.87;99980.91;1407843;97;25666;-76
2021/05/12 02:18:07;;;;;;;9.98;3.30;;;;;;;15.19;43.98;99977.31;1384408;98;25824;-75
2021/05/12 02:20:36;;;;;;;13.43;3.50;;;;;;;15.18;44.02;99978.36;1372531;99;26229;-76
2021/05/12 02:23:07;;;;;;;7.28;3.52;;;;;;;15.15;44.05;99969.91;1420415;96;25760;-75
2021/05/12 02:25:34;;;;;;;15.83;3.47;;;;;;;15.15;44.08;99973.96;1411588;96;28047;-76
2021/05/12 02:28:02;;;;;;;7.92;3.60;;;;;;;15.09;44.02;99968.98;1406557;97;25667;-75
2021/05/12 02:30:29;;;;;;;13.35;4.05;;;;;;;15.10;44.05;99973.82;1390315;96;25825;-75
2021/05/12 02:32:57;;;;;;;7.58;3.60;;;;;;;15.09;44.07;99974.89;1421418;96;26362;-76
2021/05/12 02:35:24;;;;;;;6.17;3.33;;;;;;;15.08;44.13;99970.53;1412419;96;25621;-75
2021/05/12 02:37:52;;;;;;;10.20;3.30;;;;;;;15.08;44.17;99971.88;1401782;96;28140;-75
2021/05/12 02:40:21;;;;;;;8.83;2.95;;;;;;;15.07;44.25;99969.73;1385448;97;25826;-76
2021/05/12 02:42:50;;;;;;;9.33;4.00;;;;;;;15.05;44.25;99966.97;1420172;96;25864;-76
2021/05/12 02:45:19;;;;;;;11.85;3.67;;;;;;;15.00;44.14;99967.66;1403456;96;25749;-76
2021/05/12 02:47:57;;;;;;;9.73;3.20;;;;;;;14.98;44.24;99966.23;1399395;96;26383;-76
2021/05/12 02:50:15;;;;;;;4.85;3.02;;;;;;;14.98;44.34;99970.28;1377906;96;27719;-75
2021/05/12 02:52:43;;;;;;;5.47;2.80;;;;;;;14.95;44.26;99966.17;1426372;96;25731;-77
2021/05/12 02:55:10;;;;;;;6.15;2.80;;;;;;;14.95;44.30;99964.81;1394526;97;25694;-76
2021/05/12 02:57:37;;;;;;;5.85;3.00;;;;;;;14.94;44.35;99964.54;1393188;97;26311;-76
2021/05/12 03:00:08;;;;;;;6.05;3.33;;;;;;;14.94;44.46;99962.36;1379933;97;25811;-76
2021/05/12 03:02:35;;;;;;;7.55;3.00;;;;;;;14.90;44.49;99963.87;1384593;97;28243;-76
2021/05/12 03:05:02;;;;;;;8.05;3.40;;;;;;;14.82;44.49;99966.91;1403659;97;26511;-76
2021/05/12 03:07:29;;;;;;;8.08;3.20;;;;;;;14.82;44.64;99969.60;1397600;98;25922;-76
2021/05/12 03:09:56;;;;;;;5.58;3.15;;;;;;;14.78;44.81;99973.27;1373156;97;26251;-76
2021/05/12 03:12:23;;;;;;;4.97;2.80;;;;;;;14.77;44.69;99968.11;1414974;97;25733;-75
2021/05/12 03:14:51;;;;;;;6.97;2.50;;;;;;;14.74;44.76;99970.73;1410220;97;27538;-76
2021/05/12 03:17:18;;;;;;;7.28;3.25;;;;;;;14.75;44.91;99976.95;1397436;97;25700;-76
2021/05/12 03:19:45;;;;;;;6.80;3.33;;;;;;;14.74;44.91;99977.47;1401068;95;25881;-75
2021/05/12 03:22:12;;;;;;;5.42;3.30;;;;;;;14.74;44.96;99975.29;1405486;96;26097;-75
2021/05/12 03:24:39;;;;;;;7.30;3.25;;;;;;;14.74;45.05;99977.98;1435925;95;26334;-76
2021/05/12 03:27:06;;;;;;;7.40;3.33;;;;;;;14.74;45.09;99978.81;1446019;94;27416;-76
2021/05/12 03:29:34;;;;;;;8.40;3.62;;;;;;;14.73;45.11;99979.05;1390008;96;25777;-76
2021/05/12 03:32:01;;;;;;;9.13;3.58;;;;;;;14.73;45.23;99975.02;1419946;96;26029;-76
2021/05/12 03:34:28;;;;;;;7.97;3.62;;;;;;;14.71;45.25;99983.86;1433764;95;26132;-76
2021/05/12 03:36:55;;;;;;;8.98;3.20;;;;;;;14.71;45.34;99972.55;1444828;94;25699;-76
2021/05/12 03:39:22;;;;;;;10.15;3.40;;;;;;;14.74;45.47;99973.42;1388543;95;28059;-75
2021/05/12 03:41:49;;;;;;;5.37;3.60;;;;;;;14.74;45.38;99973.94;1431231;95;26428;-75
2021/05/12 03:44:16;;;;;;;9.55;3.75;;;;;;;14.73;45.51;99974.49;1436133;95;25841;-75
2021/05/12 03:46:43;;;;;;;9.48;3.80;;;;;;;14.73;45.47;99969.63;1422961;95;25729;-77
2021/05/12 03:49:10;;;;;;;14.03;4.45;;;;;;;14.77;45.53;99969.45;1412464;95;25682;-76
2021/05/12 03:51:37;;;;;;;8.88;3.42;;;;;;;14.85;45.40;99971.83;1435265;95;27652;-76
2021/05/12 03:54:05;;;;;;;13.68;4.37;;;;;;;14.97;45.45;99968.66;1419136;95;25939;-76
2021/05/12 03:56:32;;;;;;;9.98;4.25;;;;;;;15.22;45.46;99969.30;1446296;94;25821;-76
2021/05/12 03:58:59;;;;;;;8.45;3.58;;;;;;;15.43;45.20;99972.81;1427844;95;26332;-76
2021/05/12 04:01:26;;;;;;;11.43;4.05;;;;;;;15.45;44.79;99974.75;1405408;95;25754;-75
2021/05/12 04:03:53;;;;;;;10.85;3.87;;;;;;;15.38;44.63;99969.95;1436384;95;27530;-77
2021/05/12 04:06:20;;;;;;;10.30;4.00;;;;;;;15.34;44.73;99971.47;1413972;96;25727;-76
2021/05/12 04:08:47;;;;;;;7.37;3.90;;;;;;;15.33;44.55;99975.24;1428552;95;25792;-76
2021/05/12 04:11:14;;;;;;;10.00;3.37;;;;;;;15.32;44.81;99969.53;1429838;94;25685;-76
2021/05/12 04:13:41;;;;;;;9.55;3.52;;;;;;;15.32;44.72;99969.53;1436634;95;25771;-76
2021/05/12 04:16:08;;;;;;;7.70;3.33;;;;;;;15.37;44.79;99971.85;1419102;96;27564;-77
2021/05/12 04:18:35;;;;;;;11.53;4.37;;;;;;;15.38;44.81;99976.17;1383642;96;25717;-76
2021/05/12 04:21:02;;;;;;;9.75;4.10;;;;;;;15.43;44.80;99970.11;1432567;95;25708;-76
2021/05/12 04:23:29;;;;;;;13.15;3.98;;;;;;;15.45;45.04;99972.05;1436653;95;26098;-76
2021/05/12 04:25:56;;;;;;;5.17;3.20;;;;;;;15.51;45.01;99977.03;1403004;95;25927;-76
2021/05/12 04:28:23;;;;;;;9.63;2.87;;;;;;;15.56;44.98;99975.30;1401037;96;27689;-75
2021/05/12 04:30:50;;;;;;;8.38;3.37;;;;;;;15.60;44.91;99976.98;1435647;95;25938;-76
2021/05/12 04:33:17;;;;;;;9.35;4.30;;;;;;;15.63;44.64;99976.53;1421646;95;25884;-76
2021/05/12 04:35:44;;;;;;;7.00;3.80;;;;;;;15.66;44.88;99974.69;1418701;96;26951;-76
2021/05/12 04:38:12;;;;;;;11.93;3.55;;;;;;;15.70;44.87;99973.99;1384809;95;25788;-76
2021/05/12 04:40:39;;;;;;;6.97;3.47;;;;;;;15.76;44.95;99974.39;1432525;95;28210;-75
2021/05/12 04:43:06;;;;;;;4.97;3.12;;;;;;;15.84;44.86;99973.23;1429453;95;25812;-76
2021/05/12 04:45:33;;;;;;;9.50;3.50;;;;;;;15.91;44.89;99976.64;1415434;96;26371;-76
2021/05/12 04:48:00;;;;;;;12.40;3.20;;;;;;;15.97;44.55;99977.84;1384725;95;25745;-75
2021/05/12 04:50:31;;;;;;;5.50;3.15;;;;;;;16.05;44.73;99978.02;1431898;95;25653;-77
2021/05/12 04:52:59;;;;;;;8.10;3.80;;;;;;;16.12;44.53;99971.97;1433318;95;28156;-76
2021/05/12 04:55:27;;;;;;;7.37;2.85;;;;;;;16.21;44.53;99978.11;1415043;96;25897;-75
2021/05/12 04:57:54;;;;;;;7.08;3.33;;;;;;;16.30;44.52;99981.78;1388042;95;26382;-76
2021/05/12 05:00:22;;;;;;;6.08;3.02;;;;;;;16.37;44.40;99975.20;1434764;95;25626;-75
2021/05/12 05:02:49;;;;;;;6.97;3.25;;;;;;;16.46;44.45;99972.94;1434444;95;25618;-76
2021/05/12 05:05:17;;;;;;;5.83;3.20;;;;;;;16.53;44.10;99969.61;1403081;95;27774;-76
2021/05/12 05:07:45;;;;;;;7.45;3.02;;;;;;;16.61;44.30;99967.87;1403626;95;25687;-76
2021/05/12 05:10:14;;;;;;;11.43;3.52;;;;;;;16.69;44.13;99966.95;1431554;95;25663;-76
2021/05/12 05:12:41;;;;;;;9.45;2.75;;;;;;;16.79;44.08;99963.08;1436456;95;26197;-75
2021/05/12 05:15:12;;;;;;;5.30;2.80;;;;;;;16.89;43.98;99960.55;1386743;96;25951;-76
2021/05/12 05:17:41;;;;;;;7.97;2.72;;;;;;;16.98;43.87;99958.83;1402745;96;27476;-75
2021/05/12 05:20:13;;;;;;;11.22;3.42;;;;;;;17.04;43.18;99955.14;1421301;95;25793;-76
2021/05/12 05:22:41;;;;;;;6.47;2.98;;;;;;;17.11;43.09;99964.72;1423169;96;25711;-76
2021/05/12 05:25:10;;;;;;;6.80;3.10;;;;;;;17.21;42.97;99967.62;1398833;97;25851;-76
2021/05/12 05:27:37;;;;;;;5.40;2.62;;;;;;;17.29;42.66;99965.86;1404588;97;25741;-75
2021/05/12 05:30:05;;;;;;;6.25;2.87;;;;;;;17.36;42.44;99961.64;1421754;95;28228;-76
2021/05/12 05:32:50;;;;;;;7.47;2.65;;;;;;;17.44;42.58;99965.28;1436739;95;25686;-75
2021/05/12 05:35:36;;;;;;;11.33;3.22;;;;;;;17.54;42.41;99963.59;1436272;95;25699;-77
2021/05/12 05:38:21;;;;;;;5.92;2.62;;;;;;;17.65;42.17;99970.80;1420524;95;26014;-75
2021/05/12 05:41:07;;;;;;;4.55;2.25;;;;;;;17.73;42.21;99959.55;1436205;95;26036;-76
2021/05/12 05:43:52;;;;;;;7.22;2.87;;;;;;;17.83;42.11;99964.30;1431243;95;27611;-76
2021/05/12 05:46:21;;;;;;;6.58;2.60;;;;;;;17.91;41.19;99959.80;1364985;95;25680;-76
2021/05/12 05:49:06;;;;;;;5.78;2.85;;;;;;;18.00;41.79;99962.91;1411178;95;25916;-75
2021/05/12 05:51:52;;;;;;;8.78;3.58;;;;;;;18.08;41.24;99959.75;1434986;95;25960;-77
2021/05/12 05:54:37;;;;;;;7.55;2.60;;;;;;;18.18;41.90;99963.42;1422464;95;25836;-74
2021/05/12 05:57:23;;;;;;;10.00;2.90;;;;;;;18.26;41.28;99960.27;1420570;95;27618;-76
2021/05/12 06:00:11;;;;;;;6.70;2.33;;;;;;;18.33;41.17;99959.55;1409714;95;25700;-74
2021/05/12 06:02:42;;;;;;;8.85;2.47;;;;;;;18.45;41.16;99963.53;1434402;95;25610;-74
2021/05/12 06:05:28;;;;;;;8.05;2.90;;;;;;;18.53;41.41;99964.95;1438489;95;26315;-77
2021/05/12 06:08:13;;;;;;;5.28;2.30;;;;;;;18.62;41.12;99962.91;1405631;95;25708;-75
2021/05/12 06:11:01;;;;;;;5.03;2.47;;;;;;;18.70;41.07;99960.27;1350493;101;28030;-76
2021/05/12 06:13:47;;;;;;;4.85;2.75;;;;;;;18.82;41.08;99958.25;1360627;100;25803;-76
2021/05/12 06:16:32;;;;;;;5.40;2.47;;;;;;;18.92;40.71;99965.13;1351535;99;25796;-76
2021/05/12 06:19:18;;;;;;;6.03;2.77;;;;;;;19.00;41.04;99955.98;1382605;97;26543;-76
2021/05/12 06:22:03;;;;;;;7.95;2.60;;;;;;;19.08;40.51;99948.72;1430038;95;25682;-77
2021/05/12 06:24:49;;;;;;;7.12;2.35;;;;;;;19.16;40.99;99952.31;1421696;95;27616;-76
2021/05/12 06:27:34;;;;;;;8.48;2.67;;;;;;;19.26;40.71;99957.03;1432963;95;25784;-76
2021/05/12 06:30:20;;;;;;;6.42;2.62;;;;;;;19.33;40.04;99941.88;1380319;99;25724;-77
2021/05/12 06:33:07;;;;;;;8.23;2.67;;;;;;;19.38;40.28;99949.55;1363925;99;25820;-76
2021/05/12 06:35:53;;;;;;;5.72;2.80;;;;;;;19.47;40.46;99946.63;1388562;99;25859;-76
2021/05/12 06:38:39;;;;;;;4.80;2.40;;;;;;;19.59;40.25;99943.74;1399485;97;27520;-76
2021/05/12 06:41:06;;;;;;;8.28;2.50;;;;;;;19.65;39.50;99933.97;1388333;98;25563;-77
2021/05/12 06:43:34;;;;;;;8.63;2.58;;;;;;;19.69;39.76;99933.76;1393371;97;25891;-78
2021/05/12 06:46:01;;;;;;;11.38;2.70;;;;;;;19.75;38.81;99933.23;1429213;95;25649;-77
2021/05/12 06:48:28;;;;;;;8.15;2.58;;;;;;;19.81;39.42;99935.72;1435913;95;25928;-76
2021/05/12 06:50:55;;;;;;;9.43;2.62;;;;;;;19.90;39.67;99940.13;1383014;97;28128;-77
2021/05/12 06:53:31;;;;;;;7.10;3.00;;;;;;;19.98;39.75;99944.52;1367324;97;25866;-76
2021/05/12 06:55:59;;;;;;;8.33;2.95;;;;;;;20.10;39.39;99935.34;1409223;97;26313;-76
2021/05/12 06:58:26;;;;;;;6.62;2.30;;;;;;;20.15;39.14;99938.06;1409219;97;26004;-77
2021/05/12 07:00:53;;;;;;;7.65;2.85;;;;;;;20.21;39.51;99942.50;1360181;99;25744;-76
2021/05/12 07:03:24;;;;;;;6.45;2.33;;;;;;;20.31;39.55;99938.45;1367807;98;28133;-76
2021/05/12 07:05:55;;;;;;;6.28;2.47;;;;;;;20.38;39.76;99940.39;1420651;96;25788;-77
2021/05/12 07:08:23;;;;;;;10.08;2.70;;;;;;;20.49;40.55;99942.04;1432385;95;25730;-77
2021/05/12 07:10:50;;;;;;;6.00;2.55;;;;;;;20.60;39.98;99943.17;1418624;96;25702;-76
2021/05/12 07:13:17;;;;;;;7.00;2.40;;;;;;;20.67;39.55;99950.55;1413269;95;25927;-76
2021/05/12 07:15:44;;;;;;;8.93;2.77;;;;;;;20.78;40.32;99943.77;1423802;95;28169;-77
2021/05/12 07:18:12;;;;;;;7.15;2.95;;;;;;;20.86;40.08;99941.33;1370227;98;25709;-76
2021/05/12 07:20:39;;;;;;;7.10;2.45;;;;;;;20.97;39.41;99940.80;1373726;97;25898;-77
2021/05/12 07:23:11;;;;;;;6.05;2.98;;;;;;;21.02;39.29;99947.63;1373339;98;26061;-76
2021/05/12 07:25:38;;;;;;;5.60;2.30;;;;;;;21.08;39.33;99947.39;1402545;97;25528;-78
2021/05/12 07:28:06;;;;;;;4.90;2.62;;;;;;;21.15;39.15;99939.75;1388094;98;27634;-77
2021/05/12 07:30:33;;;;;;;9.53;2.60;;;;;;;21.24;39.16;99929.12;1374484;97;25897;-77
2021/05/12 07:33:01;;;;;;;12.37;2.98;;;;;;;21.30;39.05;99935.67;1350248;99;25554;-77
2021/05/12 07:35:28;;;;;;;6.92;2.42;;;;;;;21.37;38.57;99936.76;1382201;99;25882;-77
2021/05/12 07:37:55;;;;;;;5.97;2.05;;;;;;;21.41;37.74;99933.22;1384472;99;25613;-76
2021/05/12 07:40:22;;;;;;;9.85;2.70;;;;;;;21.46;38.06;99937.84;1353701;99;27704;-77
2021/05/12 07:42:50;;;;;;;8.45;2.40;;;;;;;21.50;38.53;99932.94;1361439;99;25642;-76
2021/05/12 07:45:17;;;;;;;7.87;2.77;;;;;;;21.59;38.55;99933.75;1384375;99;25938;-77
2021/05/12 07:47:44;;;;;;;8.48;2.77;;;;;;;21.65;37.67;99932.64;1376781;99;25712;-76
2021/05/12 07:50:11;;;;;;;13.85;2.75;;;;;;;21.69;37.73;99934.55;1366863;99;25760;-77
2021/05/12 07:52:39;;;;;;;9.95;3.00;;;;;;;21.73;37.98;99934.27;1369339;99;27448;-76
2021/05/12 07:55:06;;;;;;;7.92;2.67;;;;;;;21.80;37.77;99928.52;1384612;99;25995;-77
2021/05/12 07:57:33;;;;;;;5.72;2.42;;;;;;;21.86;37.35;99928.27;1387179;99;25693;-76
2021/05/12 08:00:03;;;;;;;10.35;2.95;;;;;;;21.90;37.68;99921.17;1358808;98;26099;-76
2021/05/12 08:02:31;;;;;;;9.25;2.50;;;;;;;21.94;37.08;99924.97;1389283;98;25926;-78
2021/05/12 08:04:59;;;;;;;8.80;2.60;;;;;;;22.00;37.25;99918.97;1405970;97;27633;-77
2021/05/12 08:07:26;;;;;;;6.78;2.77;;;;;;;22.07;37.17;99919.47;1390334;98;26530;-76
2021/05/12 08:09:53;;;;;;;6.67;2.50;;;;;;;22.13;37.03;99916.45;1338574;99;25876;-77
2021/05/12 08:12:20;;;;;;;8.55;3.12;;;;;;;22.19;36.55;99918.08;1378750;99;25991;-77
2021/05/12 08:14:47;;;;;;;6.28;2.17;;;;;;;22.25;37.38;99916.96;1387061;99;26607;-77
2021/05/12 08:17:14;;;;;;;5.22;2.42;;;;;;;22.34;37.14;99911.73;1359068;100;28224;-77
2021/05/12 08:19:41;;;;;;;8.40;2.67;;;;;;;22.44;36.79;99917.14;1335205;100;25710;-76
2021/05/12 08:22:09;;;;;;;5.25;2.65;;;;;;;22.51;36.99;99905.38;1378987;97;25954;-77
2021/05/12 08:24:36;;;;;;;9.13;2.30;;;;;;;22.63;36.89;99906.41;1409436;97;25681;-76
2021/05/12 08:27:05;;;;;;;5.47;2.47;;;;;;;22.71;36.00;99905.27;1409224;97;26335;-76
2021/05/12 08:29:36;;;;;;;7.22;2.42;;;;;;;22.76;34.62;99901.69;1360935;98;28800;-77
2021/05/12 08:32:05;;;;;;;6.00;2.47;;;;;;;22.81;36.04;99905.77;1408574;97;33581;-76
2021/05/12 08:34:32;;;;;;;5.83;1.98;;;;;;;22.87;35.51;99901.35;1392086;97;25940;-77
2021/05/12 08:37:00;;;;;;;5.10;2.22;;;;;;;22.94;36.76;99898.30;1376847;97;25750;-78
2021/05/12 08:39:27;;;;;;;8.00;2.52;;;;;;;23.01;36.19;99900.96;1371194;97;25795;-78
2021/05/12 08:41:56;;;;;;;5.67;2.52;;;;;;;23.05;36.54;99896.30;1409127;97;27790;-77
2021/05/12 08:44:23;;;;;;;15.23;2.60;;;;;;;23.14;36.92;99895.39;1392281;97;25868;-78
2021/05/12 08:46:51;;;;;;;6.78;2.05;;;;;;;23.25;35.98;99893.38;1360371;97;25643;-78
2021/05/12 08:49:20;;;;;;;6.28;2.20;;;;;;;23.36;36.28;99896.33;1392134;97;25775;-78
2021/05/12 08:51:47;;;;;;;10.93;2.15;;;;;;;23.43;36.11;99895.45;1392866;97;25698;-78
2021/05/12 08:54:15;;;;;;;11.75;2.00;;;;;;;23.49;35.57;99890.19;1396111;97;28206;-77
2021/05/12 08:56:42;;;;;;;3.12;2.00;;;;;;;23.52;35.01;99886.32;1392097;97;25663;-77
2021/05/12 08:59:09;;;;;;;6.85;2.80;;;;;;;23.58;36.03;99886.56;1411993;97;26233;-77
2021/05/12 09:01:36;;;;;;;3.37;2.08;;;;;;;23.67;35.27;99882.06;1409004;97;25715;-76
2021/05/12 09:04:04;;;;;;;4.22;1.90;;;;;;;23.70;35.03;99883.41;1395468;98;25812;-78
2021/05/12 09:06:34;;;;;;;9.88;2.67;;;;;;;23.77;35.21;99875.69;1380109;98;27599;-77
2021/05/12 09:09:03;;;;;;;17.05;3.10;;;;;;;23.83;35.58;99879.98;1395882;98;25772;-77
2021/05/12 09:11:32;;;;;;;11.55;2.02;;;;;;;23.91;35.71;99875.23;1409035;97;25272;-77
2021/05/12 09:14:01;;;;;;;5.45;2.05;;;;;;;24.02;35.30;99878.11;1393099;97;25755;-77
2021/05/12 09:16:31;;;;;;;6.70;1.77;;;;;;;24.08;34.86;99872.08;1377196;96;25893;-78
2021/05/12 09:19:09;;;;;;;4.47;1.85;;;;;;;24.15;35.69;99878.80;1411934;97;27518;-78
2021/05/12 09:21:57;;;;;;;9.53;1.90;;;;;;;24.21;35.13;99874.07;1384349;99;26538;-76
2021/05/12 09:24:38;;;;;;;11.03;1.70;;;;;;;24.29;34.91;99868.76;1370593;99;25790;-77
2021/05/12 09:27:16;;;;;;;10.50;2.00;;;;;;;24.40;35.13;99870.83;1387478;97;25700;-77
2021/05/12 09:29:45;;;;;;;11.38;1.67;;;;;;;24.48;35.39;99867.42;1372441;98;25802;-76
2021/05/12 09:32:18;;;;;;;2.83;1.80;;;;;;;24.56;33.74;99876.88;1398683;97;27700;-77
2021/05/12 09:35:00;;;;;;;5.35;1.60;;;;;;;24.62;34.10;99873.78;1392761;98;25765;-77
2021/05/12 09:37:34;;;;;;;6.40;1.85;;;;;;;24.70;34.39;99869.58;1375989;98;25651;-77
2021/05/12 09:40:15;;;;;;;6.75;1.52;;;;;;;24.81;33.96;99869.68;1377228;100;26038;-77
2021/05/12 09:42:44;;;;;;;8.93;1.52;;;;;;;24.89;34.06;99869.82;1393680;98;25799;-78
2021/05/12 09:45:23;;;;;;;8.75;1.95;;;;;;;24.92;32.52;99870.61;1377119;99;27768;-78
2021/05/12 09:47:58;;;;;;;4.85;1.32;;;;;;;24.96;32.23;99866.70;1383094;97;26260;-78
2021/05/12 09:50:31;;;;;;;11.35;1.32;;;;;;;24.99;32.67;99861.45;1373427;98;25793;-77
2021/05/12 09:53:01;;;;;;;7.40;1.72;;;;;;;25.04;32.16;99866.05;1406393;97;26426;-77
2021/05/12 09:55:45;;;;;;;4.62;1.20;;;;;;;25.14;32.51;99861.20;1392334;97;25759;-78
2021/05/12 09:58:17;;;;;;;5.65;1.32;;;;;;;25.24;30.98;99855.53;1387963;98;28335;-77
2021/05/12 10:00:51;;;;;;;5.00;1.42;;;;;;;25.31;30.30;99859.81;1381026;97;26572;-77
2021/05/12 10:03:24;;;;;;;8.10;1.42;;;;;;;25.35;29.88;99869.06;1406703;97;25729;-77
2021/05/12 10:06:04;;;;;;;2.87;1.30;;;;;;;25.40;30.65;99864.87;1409462;96;26283;-78
2021/05/12 10:08:36;;;;;;;6.42;1.20;;;;;;;25.44;30.92;99865.92;1400724;95;25850;-77
2021/05/12 10:11:13;;;;;;;5.58;1.40;;;;;;;25.50;31.28;99868.81;1435773;95;27941;-77
2021/05/12 10:13:40;;;;;;;5.33;1.20;;;;;;;25.54;31.35;99863.80;1418329;95;25670;-77
2021/05/12 10:16:10;;;;;;;9.05;1.20;;;;;;;25.60;31.62;99865.91;1434292;95;25868;-77
2021/05/12 10:18:37;;;;;;;2.42;1.25;;;;;;;25.66;31.17;99868.22;1390493;95;25713;-77
2021/05/12 10:21:05;;;;;;;5.28;1.50;;;;;;;25.70;30.52;99861.04;1421871;96;26528;-77
2021/05/12 10:23:32;;;;;;;2.20;1.12;;;;;;;25.72;30.85;99858.80;1433886;95;28132;-77
2021/05/12 10:26:02;;;;;;;4.72;1.00;;;;;;;25.77;31.05;99859.27;1396700;96;25747;-77
2021/05/12 10:28:38;;;;;;;2.67;0.80;;;;;;;25.83;29.75;99863.53;1379550;96;26484;-78
2021/05/12 10:31:06;;;;;;;4.70;1.00;;;;;;;25.92;30.75;99863.05;1412913;96;26082;-77
2021/05/12 10:33:53;;;;;;;5.03;1.27;;;;;;;25.93;30.27;99853.71;1411591;96;25931;-78
2021/05/12 10:36:23;;;;;;;4.40;0.75;;;;;;;25.95;30.55;99855.59;1393141;96;27427;-77
2021/05/12 10:38:52;;;;;;;4.28;1.10;;;;;;;26.01;30.11;99855.18;1397047;96;25725;-78
2021/05/12 10:41:39;;;;;;;4.20;0.80;;;;;;;26.06;29.91;99854.27;1375699;98;25920;-77
2021/05/12 10:44:17;;;;;;;2.25;0.70;;;;;;;26.08;29.72;99855.33;1427594;95;26329;-77
2021/05/12 10:46:47;;;;;;;2.22;0.90;;;;;;;26.15;30.28;99855.77;1413940;95;25701;-77
2021/05/12 10:49:23;;;;;;;4.75;1.25;;;;;;;26.21;30.38;99861.39;1373213;95;27604;-77
2021/05/12 10:51:52;;;;;;;3.17;0.85;;;;;;;26.27;30.57;99853.30;1414748;95;25828;-76
2021/05/12 10:54:41;;;;;;;7.22;1.02;;;;;;;26.34;30.58;99851.77;1433094;95;26374;-77
2021/05/12 10:57:10;;;;;;;6.62;0.80;;;;;;;26.41;30.31;99843.11;1400640;96;25731;-78
2021/05/12 10:59:45;;;;;;;2.40;1.12;;;;;;;26.45;31.37;99842.16;1382365;95;26405;-78
2021/05/12 11:02:12;;;;;;;8.13;0.70;;;;;;;26.53;31.25;99831.83;1423490;95;27610;-77
2021/05/12 11:04:45;;;;;;;3.67;1.00;;;;;;;26.63;30.97;99837.63;1428789;95;25878;-78
2021/05/12 11:07:12;;;;;;;4.35;1.10;;;;;;;26.61;30.27;99828.89;1410187;97;25733;-77
2021/05/12 11:09:43;;;;;;;3.27;1.50;;;;;;;26.66;30.63;99838.39;1411980;96;26239;-78
2021/05/12 11:12:12;;;;;;;3.87;1.00;;;;;;;26.71;31.60;99834.13;1430190;95;25640;-78
2021/05/12 11:14:40;;;;;;;6.25;1.37;;;;;;;26.74;31.14;99834.37;1430515;95;27515;-77
2021/05/12 11:17:12;;;;;;;5.70;1.47;;;;;;;26.79;31.04;99832.07;1415007;95;26465;-77
2021/05/12 11:19:56;;;;;;;6.55;1.32;;;;;;;26.82;30.76;99831.42;1413781;95;25554;-78
2021/05/12 11:22:42;;;;;;;2.10;1.27;;;;;;;26.84;31.03;99830.55;1429738;95;25900;-78
2021/05/12 11:33:34;;;;;;;9.50;1.37;;;;;;;26.92;30.22;99809.21;1425920;96;25658;-77
2021/05/12 11:36:07;;;;;;;5.15;1.27;;;;;;;26.95;30.45;99811.88;1412967;97;27589;-78
2021/05/12 11:38:34;;;;;;;3.20;0.88;;;;;;;26.98;30.41;99814.00;1414272;96;25699;-77
2021/05/12 11:41:12;;;;;;;3.62;1.20;;;;;;;27.03;30.37;99814.67;1392333;97;27649;-77
2021/05/12 11:43:44;;;;;;;6.50;1.25;;;;;;;27.05;30.61;99806.92;1394623;96;25901;-77
2021/05/12 11:46:28;;;;;;;6.47;1.10;;;;;;;27.12;30.56;99808.67;1424874;96;26138;-77
2021/05/12 11:48:59;;;;;;;5.95;1.10;;;;;;;27.19;30.38;99806.30;1413579;96;25628;-78
2021/05/12 11:51:44;;;;;;;2.72;1.10;;;;;;;27.20;30.04;99802.98;1391475;96;25679;-77
2021/05/12 11:54:20;;;;;;;3.27;1.17;;;;;;;27.26;30.29;99807.22;1420683;96;27658;-78
2021/05/12 11:56:58;;;;;;;5.15;1.17;;;;;;;27.30;30.39;99804.91;1424001;96;25858;-76